createdAt,value
2018-05-18T00:01:22.355Z,74.20
2018-05-18T00:03:50.418Z,74.60
2018-05-18T00:06:18.486Z,74.80
2018-05-18T00:08:46.530Z,74.80
2018-05-18T00:11:15.361Z,75.20
2018-05-18T00:13:43.476Z,74.80
2018-05-18T00:16:11.542Z,75.20
2018-05-18T00:18:39.586Z,74.80
2018-05-18T00:21:07.634Z,74.90
2018-05-18T00:23:36.316Z,75.20
2018-05-18T00:26:04.438Z,75.20
2018-05-18T00:28:32.477Z,75.40
2018-05-18T00:31:00.592Z,75.60
2018-05-18T00:33:28.701Z,75.60
2018-05-18T00:35:56.703Z,75.40
2018-05-18T00:38:24.792Z,75.60
2018-05-18T00:40:52.830Z,75.50
2018-05-18T00:43:20.901Z,75.30
2018-05-18T00:45:48.974Z,74.90
2018-05-18T00:48:17.805Z,74.10
2018-05-18T00:50:45.859Z,74.30
2018-05-18T00:53:13.903Z,74.50
2018-05-18T00:55:42.011Z,74.30
2018-05-18T00:58:10.067Z,74.40
2018-05-18T01:00:38.120Z,74.20
2018-05-18T01:03:06.906Z,74.30
2018-05-18T01:05:35.715Z,75.00
2018-05-18T01:08:03.850Z,74.60
2018-05-18T01:10:31.854Z,75.10
2018-05-18T01:12:59.897Z,75.20
2018-05-18T01:15:27.968Z,75.50
2018-05-18T01:17:56.043Z,75.60
2018-05-18T01:20:24.130Z,75.70
2018-05-18T01:22:52.166Z,75.60
2018-05-18T01:25:20.987Z,75.90
2018-05-18T01:27:50.207Z,75.80
2018-05-18T01:30:18.261Z,75.10
2018-05-18T01:32:46.338Z,75.30
2018-05-18T01:35:14.413Z,75.50
2018-05-18T01:37:42.450Z,75.70
2018-05-18T01:40:10.521Z,75.90
2018-05-18T01:42:38.594Z,75.90
2018-05-18T01:45:06.736Z,75.90
2018-05-18T01:47:34.774Z,75.70
2018-05-18T01:50:11.356Z,75.50
2018-05-18T01:52:39.371Z,75.20
2018-05-18T01:55:07.459Z,75.30
2018-05-18T01:57:35.522Z,75.30
2018-05-18T02:00:03.596Z,75.30
2018-05-18T02:02:31.697Z,73.00
2018-05-18T02:04:59.758Z,75.30
2018-05-18T02:07:27.836Z,75.30
2018-05-18T02:09:55.884Z,75.60
2018-05-18T02:12:23.966Z,75.20
2018-05-18T02:14:52.834Z,75.00
2018-05-18T02:17:20.886Z,74.90
2018-05-18T02:22:18.291Z,74.70
2018-05-18T02:24:46.362Z,74.40
2018-05-18T02:27:15.461Z,74.50
2018-05-18T02:29:43.523Z,74.90
2018-05-18T02:32:11.578Z,75.30
2018-05-18T02:34:40.064Z,75.30
2018-05-18T02:37:08.872Z,75.40
2018-05-18T02:39:36.948Z,75.00
2018-05-18T02:42:04.991Z,74.90
2018-05-18T02:44:34.201Z,75.00
2018-05-18T02:47:02.254Z,75.50
2018-05-18T02:49:31.123Z,75.60
2018-05-18T02:51:59.207Z,75.20
2018-05-18T02:54:27.276Z,75.40
2018-05-18T02:56:55.333Z,75.60
2018-05-18T02:59:23.408Z,75.70
2018-05-18T03:01:51.617Z,75.70
2018-05-18T03:04:20.468Z,76.40
2018-05-18T03:06:48.508Z,75.90
2018-05-18T03:09:16.546Z,75.80
2018-05-18T03:11:45.386Z,76.50
2018-05-18T03:14:13.438Z,76.10
2018-05-18T03:16:41.530Z,76.00
2018-05-18T03:19:09.596Z,75.80
2018-05-18T03:21:37.634Z,75.80
2018-05-18T03:24:05.697Z,76.10
2018-05-18T03:26:34.560Z,76.90
2018-05-18T03:29:02.651Z,76.30
2018-05-18T03:31:31.483Z,76.80
2018-05-18T03:33:59.561Z,76.10
2018-05-18T03:36:27.627Z,76.00
2018-05-18T03:38:55.705Z,76.00
2018-05-18T03:41:23.773Z,75.70
2018-05-18T03:43:51.849Z,75.80
2018-05-18T03:46:19.907Z,75.70
2018-05-18T03:48:47.953Z,75.50
2018-05-18T03:51:16.025Z,75.50
2018-05-18T03:53:44.083Z,75.50
2018-05-18T03:56:12.917Z,76.10
2018-05-18T03:58:41.045Z,75.40
2018-05-18T04:01:09.869Z,75.90
2018-05-18T04:03:49.973Z,75.90
2018-05-18T04:06:29.661Z,75.40
2018-05-18T04:08:57.729Z,75.40
2018-05-18T04:11:25.786Z,75.30
2018-05-18T04:13:54.629Z,75.80
2018-05-18T04:16:22.703Z,75.40
2018-05-18T04:18:50.766Z,75.50
2018-05-18T04:21:18.839Z,75.30
2018-05-18T04:23:46.889Z,75.50
2018-05-18T04:26:14.941Z,75.20
2018-05-18T04:28:43.018Z,75.20
2018-05-18T04:31:11.066Z,75.10
2018-05-18T04:33:39.141Z,75.20
2018-05-18T04:36:07.186Z,75.20
2018-05-18T04:38:36.032Z,75.50
2018-05-18T04:41:04.865Z,75.00
2018-05-18T04:43:33.725Z,75.30
2018-05-18T04:46:01.786Z,74.60
2018-05-18T04:48:29.830Z,74.40
2018-05-18T04:50:59.068Z,74.60
2018-05-18T04:53:27.098Z,74.60
2018-05-18T04:55:55.168Z,74.30
2018-05-18T04:58:23.220Z,74.00
2018-05-18T05:00:52.077Z,74.60
2018-05-18T05:03:20.171Z,74.20
2018-05-18T05:05:48.992Z,74.50
2018-05-18T05:08:17.029Z,74.00
2018-05-18T05:10:45.100Z,73.50
2018-05-18T05:13:13.550Z,73.20
2018-05-18T05:15:41.595Z,73.30
2018-05-18T05:18:09.674Z,73.30
2018-05-18T05:20:37.742Z,73.30
2018-05-18T05:23:05.798Z,73.30
2018-05-18T05:25:33.858Z,73.40
2018-05-18T05:28:01.904Z,73.10
2018-05-18T05:30:30.008Z,73.30
2018-05-18T05:32:58.081Z,73.10
2018-05-18T05:35:26.084Z,73.00
2018-05-18T05:37:55.270Z,72.90
2018-05-18T05:40:23.731Z,72.10
2018-05-18T05:42:51.785Z,72.30
2018-05-18T05:45:20.630Z,73.10
2018-05-18T05:47:49.987Z,72.50
2018-05-18T05:50:18.041Z,72.40
2018-05-18T05:52:46.901Z,73.10
2018-05-18T05:55:14.954Z,72.30
2018-05-18T05:57:42.994Z,73.10
2018-05-18T06:00:11.042Z,72.30
2018-05-18T06:02:39.952Z,73.00
2018-05-18T06:05:07.999Z,72.40
2018-05-18T06:07:37.226Z,72.70
2018-05-18T06:10:05.657Z,72.30
2018-05-18T06:12:34.634Z,72.20
2018-05-18T06:15:02.767Z,72.20
2018-05-18T06:17:30.762Z,72.20
2018-05-18T06:19:58.907Z,72.20
2018-05-18T06:22:27.829Z,72.40
2018-05-18T06:24:55.903Z,72.10
2018-05-18T06:27:23.951Z,71.80
2018-05-18T06:29:52.026Z,71.80
2018-05-18T06:32:20.106Z,71.60
2018-05-18T06:34:48.247Z,71.60
2018-05-18T06:37:16.335Z,71.30
2018-05-18T06:39:44.365Z,71.20
2018-05-18T06:42:12.434Z,70.70
2018-05-18T06:44:40.531Z,70.80
2018-05-18T06:47:09.760Z,71.00
2018-05-18T06:49:37.814Z,71.00
2018-05-18T06:52:06.418Z,70.90
2018-05-18T06:54:35.605Z,71.60
2018-05-18T06:57:03.795Z,71.40
2018-05-18T06:59:31.937Z,71.30
2018-05-18T07:01:59.933Z,71.20
2018-05-18T07:04:28.045Z,71.40
2018-05-18T07:06:56.115Z,71.30
2018-05-18T07:09:24.180Z,71.50
2018-05-18T07:11:52.233Z,70.40
2018-05-18T07:14:20.305Z,70.40
2018-05-18T07:16:48.415Z,70.50
2018-05-18T07:19:16.425Z,70.70
2018-05-18T07:21:44.485Z,70.80
2018-05-18T07:24:12.586Z,71.10
2018-05-18T07:26:40.671Z,70.80
2018-05-18T07:29:08.722Z,70.00
2018-05-18T07:31:36.777Z,69.10
2018-05-18T07:34:04.846Z,69.50
2018-05-18T07:36:36.477Z,69.60
2018-05-18T07:39:08.357Z,69.10
2018-05-18T07:41:37.226Z,69.00
2018-05-18T07:44:05.285Z,69.20
2018-05-18T07:46:33.400Z,69.50
2018-05-18T07:49:01.427Z,69.00
2018-05-18T07:51:29.505Z,69.50
2018-05-18T07:53:57.557Z,68.50
2018-05-18T07:56:25.615Z,68.30
2018-05-18T07:58:53.648Z,68.30
2018-05-18T08:01:21.710Z,68.50
2018-05-18T08:03:50.592Z,68.60
2018-05-18T08:06:19.407Z,68.30
2018-05-18T08:08:47.474Z,67.70
2018-05-18T08:11:15.502Z,67.60
2018-05-18T08:13:43.591Z,67.20
2018-05-18T08:16:12.809Z,66.90
2018-05-18T08:18:41.215Z,66.20
2018-05-18T08:21:09.266Z,66.30
2018-05-18T08:23:40.231Z,65.80
2018-05-18T08:26:09.978Z,65.10
2018-05-18T08:28:49.901Z,64.70
2018-05-18T08:31:17.988Z,64.90
2018-05-18T08:33:46.836Z,65.40
2018-05-18T08:38:44.167Z,64.50
2018-05-18T08:41:12.992Z,64.80
2018-05-18T08:43:41.817Z,64.00
2018-05-18T08:46:10.412Z,63.40
2018-05-18T08:48:38.473Z,63.90
2018-05-18T08:51:07.217Z,63.10
2018-05-18T08:53:35.298Z,62.80
2018-05-18T08:56:03.339Z,63.10
2018-05-18T08:58:32.155Z,63.50
2018-05-18T09:01:00.210Z,62.60
2018-05-18T09:03:28.258Z,62.80
2018-05-18T09:05:56.543Z,63.30
2018-05-18T09:08:25.403Z,63.90
2018-05-18T09:10:53.451Z,63.90
2018-05-18T09:13:21.499Z,62.90
2018-05-18T09:15:49.637Z,62.70
2018-05-18T09:18:18.363Z,63.10
2018-05-18T09:20:46.835Z,62.90
2018-05-18T09:23:14.889Z,62.30
2018-05-18T09:25:43.714Z,62.40
2018-05-18T09:28:12.175Z,61.50
2018-05-18T09:30:40.242Z,60.80
2018-05-18T09:33:08.278Z,60.30
2018-05-18T09:35:37.029Z,59.70
2018-05-18T09:38:05.101Z,58.00
2018-05-18T09:40:33.159Z,57.50
2018-05-18T09:43:01.225Z,58.10
2018-05-18T09:45:29.308Z,56.80
2018-05-18T09:47:57.374Z,56.40
2018-05-18T09:50:26.220Z,56.40
2018-05-18T09:52:54.317Z,54.90
2018-05-18T09:55:22.543Z,54.40
2018-05-18T09:57:51.188Z,54.80
2018-05-18T10:00:19.258Z,53.40
2018-05-18T10:02:47.310Z,53.60
2018-05-18T10:05:16.137Z,54.70
2018-05-18T10:07:44.189Z,53.60
2018-05-18T10:10:12.266Z,53.80
2018-05-18T10:12:41.157Z,53.80
2018-05-18T10:15:09.371Z,53.50
2018-05-18T10:17:37.389Z,53.70
2018-05-18T10:20:05.441Z,53.90
2018-05-18T10:22:34.353Z,54.80
2018-05-18T10:25:03.718Z,54.30
2018-05-18T10:27:31.798Z,54.40
2018-05-18T10:29:59.834Z,54.90
2018-05-18T10:32:27.869Z,54.80
2018-05-18T10:34:55.938Z,54.40
2018-05-18T10:37:24.025Z,53.20
2018-05-18T10:39:52.082Z,53.60
2018-05-18T10:42:20.906Z,51.90
2018-05-18T10:44:48.993Z,51.90
2018-05-18T10:47:17.037Z,52.60
2018-05-18T10:49:45.078Z,53.30
2018-05-18T10:52:13.149Z,53.30
2018-05-18T10:54:41.217Z,53.00
2018-05-18T10:57:10.816Z,53.20
2018-05-18T10:59:39.514Z,53.80
2018-05-18T11:02:07.605Z,52.60
2018-05-18T11:04:35.662Z,53.10
2018-05-18T11:07:03.722Z,52.90
2018-05-18T11:09:32.541Z,51.50
2018-05-18T11:12:00.698Z,50.90
2018-05-18T11:14:28.767Z,50.70
2018-05-18T11:16:56.810Z,50.80
2018-05-18T11:19:24.862Z,52.10
2018-05-18T11:21:52.911Z,51.30
2018-05-18T11:24:21.013Z,51.70
2018-05-18T11:26:49.078Z,51.40
2018-05-18T11:29:17.117Z,52.50
2018-05-18T11:31:45.467Z,53.00
2018-05-18T11:34:13.270Z,53.40
2018-05-18T11:36:41.298Z,52.90
2018-05-18T11:39:10.194Z,54.20
2018-05-18T11:41:38.191Z,53.70
2018-05-18T11:44:06.274Z,53.80
2018-05-18T11:46:35.127Z,53.60
2018-05-18T11:49:03.927Z,53.80
2018-05-18T11:51:31.995Z,53.70
2018-05-18T11:54:00.064Z,54.00
2018-05-18T11:56:28.131Z,54.10
2018-05-18T11:58:56.938Z,53.40
2018-05-18T12:01:25.074Z,53.30
2018-05-18T12:03:53.111Z,52.40
2018-05-18T12:06:21.205Z,51.60
2018-05-18T12:08:49.250Z,51.40
2018-05-18T12:11:17.301Z,49.90
2018-05-18T12:13:45.342Z,50.70
2018-05-18T12:16:13.417Z,50.40
2018-05-18T12:18:41.464Z,50.20
2018-05-18T12:21:09.506Z,50.30
2018-05-18T12:23:38.341Z,50.00
2018-05-18T12:26:06.446Z,50.00
2018-05-18T12:28:34.491Z,50.00
2018-05-18T12:31:03.035Z,50.30
2018-05-18T12:33:31.106Z,50.40
2018-05-18T12:35:59.191Z,49.90
2018-05-18T12:38:27.300Z,50.40
2018-05-18T12:40:55.304Z,50.40
2018-05-18T12:43:23.374Z,50.80
2018-05-18T12:45:51.439Z,51.10
2018-05-18T12:48:19.522Z,50.40
2018-05-18T12:50:47.572Z,50.50
2018-05-18T12:53:15.641Z,49.90
2018-05-18T12:55:43.714Z,49.90
2018-05-18T12:58:11.758Z,49.30
2018-05-18T13:00:40.644Z,50.10
2018-05-18T13:03:09.482Z,50.80
2018-05-18T13:05:37.560Z,50.00
2018-05-18T13:08:05.622Z,50.40
2018-05-18T13:10:33.702Z,49.90
2018-05-18T13:13:03.491Z,50.40
2018-05-18T13:15:32.168Z,50.40
2018-05-18T13:18:00.924Z,50.80
2018-05-18T13:20:30.130Z,50.50
2018-05-18T13:22:58.969Z,51.20
2018-05-18T13:25:27.009Z,50.60
2018-05-18T13:27:55.062Z,51.20
2018-05-18T13:30:23.212Z,51.20
2018-05-18T13:32:51.209Z,51.60
2018-05-18T13:35:19.294Z,52.00
2018-05-18T13:37:47.364Z,52.40
2018-05-18T13:40:15.402Z,52.10
2018-05-18T13:42:44.321Z,53.00
2018-05-18T13:45:12.384Z,51.90
2018-05-18T13:47:41.210Z,51.60
2018-05-18T13:50:09.671Z,51.50
2018-05-18T13:52:39.310Z,51.40
2018-05-18T13:55:07.355Z,51.30
2018-05-18T13:57:35.415Z,51.70
2018-05-18T14:00:03.499Z,51.70
2018-05-18T14:02:31.550Z,51.10
2018-05-18T14:04:59.643Z,50.70
2018-05-18T14:07:28.355Z,50.00
2018-05-18T14:09:56.418Z,49.70
2018-05-18T14:12:24.499Z,49.50
2018-05-18T14:14:52.897Z,49.40
2018-05-18T14:17:20.932Z,49.60
2018-05-18T14:19:48.991Z,49.50
2018-05-18T14:22:17.049Z,49.10
2018-05-18T14:24:45.160Z,49.60
2018-05-18T14:27:13.233Z,49.50
2018-05-18T14:29:41.302Z,49.40
2018-05-18T14:32:09.361Z,49.60
2018-05-18T14:34:37.500Z,49.70
2018-05-18T14:37:05.563Z,50.40
2018-05-18T14:39:34.536Z,50.90
2018-05-18T14:42:02.596Z,50.70
2018-05-18T14:44:30.665Z,50.80
2018-05-18T14:46:58.735Z,50.40
2018-05-18T14:49:26.810Z,50.80
2018-05-18T14:51:54.895Z,50.90
2018-05-18T14:54:22.943Z,51.00
2018-05-18T14:56:51.026Z,50.80
2018-05-18T14:59:19.067Z,50.30
2018-05-18T15:01:47.154Z,50.50
2018-05-18T15:04:15.236Z,50.90
2018-05-18T15:06:43.868Z,51.30
2018-05-18T15:09:13.602Z,51.10
2018-05-18T15:11:41.677Z,51.10
2018-05-18T15:14:09.771Z,51.40
2018-05-18T15:16:37.814Z,51.80
2018-05-18T15:19:05.942Z,50.80
2018-05-18T15:21:34.021Z,49.80
2018-05-18T15:24:02.893Z,49.00
2018-05-18T15:26:30.929Z,49.00
2018-05-18T15:28:59.066Z,48.90
2018-05-18T15:31:27.130Z,48.50
2018-05-18T15:33:55.971Z,48.70
2018-05-18T15:36:24.034Z,48.00
2018-05-18T15:38:52.110Z,48.40
2018-05-18T15:41:20.150Z,48.50
2018-05-18T15:43:48.298Z,48.90
2018-05-18T15:46:18.147Z,49.60
2018-05-18T15:48:46.183Z,49.20
2018-05-18T15:51:14.269Z,49.30
2018-05-18T15:53:42.343Z,49.10
2018-05-18T15:56:10.432Z,49.10
2018-05-18T15:58:38.515Z,49.50
2018-05-18T16:01:06.599Z,49.30
2018-05-18T16:03:34.674Z,49.00
2018-05-18T16:06:02.715Z,49.10
2018-05-18T16:08:30.782Z,48.90
2018-05-18T16:10:58.846Z,48.40
2018-05-18T16:13:26.916Z,48.60
2018-05-18T16:15:54.999Z,48.30
2018-05-18T16:18:23.836Z,48.70
2018-05-18T16:20:51.881Z,48.60
2018-05-18T16:23:19.982Z,49.10
2018-05-18T16:25:48.976Z,49.00
2018-05-18T16:28:17.079Z,49.70
2018-05-18T16:30:45.081Z,49.60
2018-05-18T16:33:13.142Z,50.60
2018-05-18T16:35:41.224Z,49.90
2018-05-18T16:38:09.367Z,50.00
2018-05-18T16:40:38.267Z,50.50
2018-05-18T16:43:07.085Z,50.20
2018-05-18T16:45:35.184Z,50.20
2018-05-18T16:48:03.395Z,50.30
2018-05-18T16:50:32.193Z,50.10
2018-05-18T16:53:00.298Z,50.00
2018-05-18T16:55:28.385Z,50.40
2018-05-18T16:57:56.641Z,50.90
2018-05-18T17:00:24.606Z,52.60
2018-05-18T17:02:52.681Z,52.10
2018-05-18T17:05:20.781Z,52.90
2018-05-18T17:07:48.883Z,52.60
2018-05-18T17:10:17.689Z,53.40
2018-05-18T17:12:46.722Z,53.30
2018-05-18T17:15:14.832Z,53.50
2018-05-18T17:17:42.963Z,53.80
2018-05-18T17:20:13.395Z,53.70
2018-05-18T17:22:41.465Z,53.50
2018-05-18T17:25:09.963Z,53.70
2018-05-18T17:30:14.048Z,54.70
2018-05-18T17:32:42.963Z,55.60
2018-05-18T17:35:11.070Z,56.10
2018-05-18T17:37:39.874Z,57.10
2018-05-18T17:40:08.513Z,55.10
2018-05-18T17:42:36.636Z,55.00
2018-05-18T17:45:05.389Z,55.00
2018-05-18T17:47:33.462Z,55.50
2018-05-18T17:50:01.532Z,55.50
2018-05-18T17:52:29.610Z,55.30
2018-05-18T17:54:57.682Z,55.60
2018-05-18T17:57:25.738Z,55.80
2018-05-18T17:59:53.782Z,56.20
2018-05-18T18:02:22.710Z,56.80
2018-05-18T18:04:50.742Z,57.20
2018-05-18T18:07:18.788Z,56.70
2018-05-18T18:09:46.861Z,56.60
2018-05-18T18:12:14.994Z,57.30
2018-05-18T18:14:43.018Z,57.50
2018-05-18T18:17:11.115Z,58.00
2018-05-18T18:19:39.227Z,57.50
2018-05-18T18:22:07.262Z,57.40
2018-05-18T18:24:42.667Z,58.00
2018-05-18T18:27:11.475Z,59.20
2018-05-18T18:29:39.539Z,58.20
2018-05-18T18:32:21.628Z,58.40
2018-05-18T18:34:49.686Z,58.80
2018-05-18T18:37:17.771Z,58.90
2018-05-18T18:39:45.854Z,59.30
2018-05-18T18:42:13.917Z,59.30
2018-05-18T18:44:42.023Z,59.20
2018-05-18T18:47:10.098Z,59.60
2018-05-18T18:49:38.164Z,59.80
2018-05-18T18:52:07.648Z,60.20
2018-05-18T18:54:36.468Z,60.90
2018-05-18T18:57:04.505Z,60.70
2018-05-18T18:59:32.598Z,60.90
2018-05-18T19:02:01.908Z,61.20
2018-05-18T19:04:29.950Z,61.70
2018-05-18T19:06:58.715Z,61.60
2018-05-18T19:09:26.780Z,61.70
2018-05-18T19:11:55.606Z,62.60
2018-05-18T19:14:23.712Z,62.30
2018-05-18T19:16:52.032Z,62.50
2018-05-18T19:19:20.139Z,62.60
2018-05-18T19:21:48.197Z,62.70
2018-05-18T19:24:16.346Z,62.90
2018-05-18T19:26:44.367Z,63.30
2018-05-18T19:29:12.414Z,63.20
2018-05-18T19:31:40.479Z,63.80
2018-05-18T19:34:08.538Z,64.00
2018-05-18T19:36:36.701Z,64.30
2018-05-18T19:39:05.403Z,64.70
2018-05-18T19:41:34.297Z,64.80
2018-05-18T19:44:02.390Z,65.40
2018-05-18T19:46:30.460Z,65.60
2018-05-18T19:48:58.527Z,65.90
2018-05-18T19:51:26.597Z,65.80
2018-05-18T19:53:54.660Z,65.40
2018-05-18T19:56:22.718Z,65.60
2018-05-18T19:58:50.793Z,66.30
2018-05-18T20:01:18.874Z,66.80
2018-05-18T20:03:46.938Z,67.40
2018-05-18T20:06:15.026Z,68.50
2018-05-18T20:08:43.817Z,67.60
2018-05-18T20:11:11.976Z,67.60
2018-05-18T20:13:40.767Z,68.10
2018-05-18T20:16:08.846Z,67.40
2018-05-18T20:18:36.926Z,67.10
2018-05-18T20:21:04.995Z,67.20
2018-05-18T20:23:33.127Z,67.40
2018-05-18T20:26:01.123Z,67.10
2018-05-18T20:28:29.196Z,67.20
2018-05-18T20:30:57.826Z,67.80
2018-05-18T20:33:26.347Z,68.00
2018-05-18T20:35:54.470Z,68.00
2018-05-18T20:38:22.542Z,68.30
2018-05-18T20:40:50.658Z,68.50
2018-05-18T20:43:19.083Z,68.70
2018-05-18T20:45:47.173Z,69.10
2018-05-18T20:48:15.992Z,69.90
2018-05-18T20:50:44.129Z,69.70
2018-05-18T20:53:12.163Z,70.00
2018-05-18T20:55:40.938Z,70.20
2018-05-18T20:58:09.035Z,70.50
2018-05-18T21:00:37.233Z,70.60
2018-05-18T21:03:05.324Z,70.80
2018-05-18T21:05:33.420Z,71.00
2018-05-18T21:08:01.513Z,70.90
2018-05-18T21:10:30.434Z,70.90
2018-05-18T21:12:58.501Z,70.90
2018-05-18T21:15:27.428Z,71.20
2018-05-18T21:17:55.454Z,71.40
2018-05-18T21:20:23.533Z,71.40
2018-05-18T21:22:51.610Z,71.60
2018-05-18T21:25:19.681Z,72.10
2018-05-18T21:27:48.518Z,71.70
2018-05-18T21:30:16.632Z,72.40
2018-05-18T21:32:44.688Z,72.10
2018-05-18T21:35:13.140Z,72.20
2018-05-18T21:37:41.208Z,72.20
2018-05-18T21:40:09.262Z,72.30
2018-05-18T21:42:38.278Z,72.20
2018-05-18T21:45:07.104Z,72.10
2018-05-18T21:47:35.430Z,71.90
2018-05-18T21:50:04.254Z,72.00
2018-05-18T21:52:32.354Z,71.70
2018-05-18T21:55:01.475Z,72.00
2018-05-18T21:57:32.876Z,72.40
2018-05-18T22:00:00.951Z,72.10
2018-05-18T22:02:29.031Z,72.00
2018-05-18T22:04:57.105Z,71.90
2018-05-18T22:07:25.213Z,72.60
2018-05-18T22:09:54.100Z,72.20
2018-05-18T22:12:22.602Z,71.30
2018-05-18T22:14:50.666Z,71.90
2018-05-18T22:17:19.517Z,71.50
2018-05-18T22:19:48.282Z,71.50
2018-05-18T22:22:18.552Z,71.20
2018-05-18T22:24:46.623Z,70.20
2018-05-18T22:27:15.667Z,70.60
2018-05-18T22:29:43.808Z,71.40
2018-05-18T22:32:11.820Z,72.20
2018-05-18T22:34:39.914Z,71.70
2018-05-18T22:37:08.005Z,71.80
2018-05-18T22:39:36.060Z,72.30
2018-05-18T22:42:04.178Z,72.90
2018-05-18T22:44:32.213Z,71.90
2018-05-18T22:47:01.417Z,71.80
2018-05-18T22:49:29.501Z,71.70
2018-05-18T22:51:59.135Z,72.30
2018-05-18T22:54:27.938Z,71.90
2018-05-18T22:56:56.006Z,71.90
2018-05-18T22:59:24.075Z,71.90
2018-05-18T23:01:52.974Z,71.90
2018-05-18T23:04:21.077Z,72.10
2018-05-18T23:06:49.117Z,71.70
2018-05-18T23:09:17.184Z,72.10
2018-05-18T23:11:46.640Z,72.40
2018-05-18T23:14:14.731Z,72.70
2018-05-18T23:16:42.798Z,72.90
2018-05-18T23:19:10.866Z,73.00
2018-05-18T23:21:38.969Z,73.50
2018-05-18T23:24:07.015Z,73.40
2018-05-18T23:26:35.856Z,74.30
2018-05-18T23:29:03.940Z,74.20
2018-05-18T23:31:31.978Z,74.60
2018-05-18T23:34:00.033Z,74.20
2018-05-18T23:36:28.122Z,74.60
2018-05-18T23:38:56.431Z,74.20
2018-05-18T23:41:24.473Z,74.50
2018-05-18T23:43:53.347Z,75.00
2018-05-18T23:46:21.411Z,77.40
2018-05-18T23:48:49.567Z,75.10
2018-05-18T23:51:18.383Z,75.30
2018-05-18T23:53:46.478Z,75.30
2018-05-18T23:56:14.558Z,75.20
2018-05-18T23:58:42.632Z,75.30
